Time;durP1;ratioP1;P1;durP2;ratioP2;P2;SDS_P1;SDS_P2;PMS_P1;PMS_P2;Temp;Humidity;BMP_temperature;BMP_pressure;BME280_temperature;BME280_humidity;BME280_pressure;Samples;Min_cycle;Max_cycle;Signal;HPM_P1;HPM_P2
2024/03/27 00:02:13;;;;;;;2.53;1.30;;;;;;;10.35;53.54;97528.69;10409226;28;20057;-58
2024/03/27 00:07:13;;;;;;;2.72;1.77;;;;;;;10.35;53.63;97536.75;10419754;28;20603;-57
2024/03/27 00:12:14;;;;;;;7.80;1.92;;;;;;;10.49;53.50;97521.94;10398557;28;20432;-57
2024/03/27 00:17:14;;;;;;;3.63;1.40;;;;;;;10.56;53.47;97515.56;10400138;28;20137;-57
2024/03/27 00:22:15;;;;;;;3.22;1.70;;;;;;;10.59;53.68;97510.53;10403881;28;20084;-60
2024/03/27 00:27:15;;;;;;;4.38;2.58;;;;;;;10.62;53.73;97501.16;10398981;28;20049;-59
2024/03/27 00:32:16;;;;;;;3.15;1.80;;;;;;;10.59;53.88;97517.78;10400982;28;20724;-60
2024/03/27 00:37:16;;;;;;;4.82;2.28;;;;;;;10.62;54.18;97507.34;10391082;28;20069;-59
2024/03/27 00:42:17;;;;;;;3.72;1.70;;;;;;;10.73;53.81;97496.75;10403909;28;20041;-59
2024/03/27 00:47:17;;;;;;;2.65;1.17;;;;;;;10.73;54.29;97481.44;10404700;28;20048;-59
2024/03/27 00:52:18;;;;;;;2.75;1.50;;;;;;;10.66;54.20;97467.38;10405276;28;20060;-58
2024/03/27 00:57:18;;;;;;;3.40;1.55;;;;;;;10.46;55.26;97457.16;10406881;28;20091;-58
2024/03/27 01:02:20;;;;;;;4.68;1.48;;;;;;;10.48;55.28;97437.03;10403230;28;20060;-59
2024/03/27 01:07:20;;;;;;;3.65;1.10;;;;;;;10.34;55.52;97457.25;10402507;28;20052;-59
2024/03/27 01:12:21;;;;;;;3.85;1.17;;;;;;;10.34;55.31;97449.19;10400815;28;20099;-60
2024/03/27 01:17:21;;;;;;;2.60;1.20;;;;;;;10.49;54.74;97452.09;10400912;28;20060;-59
2024/03/27 01:22:22;;;;;;;2.10;1.00;;;;;;;10.44;54.86;97459.28;10408416;28;20401;-59
2024/03/27 01:27:22;;;;;;;3.47;1.00;;;;;;;10.48;54.78;97441.59;10400397;28;20080;-60
2024/03/27 01:32:23;;;;;;;3.35;1.17;;;;;;;10.56;54.33;97437.69;10400633;28;20051;-58
2024/03/27 01:37:23;;;;;;;2.55;1.10;;;;;;;10.45;54.93;97434.88;10397891;28;20045;-59
2024/03/27 01:42:24;;;;;;;2.25;1.40;;;;;;;10.41;55.01;97424.88;10407887;28;20499;-58
2024/03/27 01:47:25;;;;;;;2.05;1.40;;;;;;;10.24;55.50;97403.38;10401528;28;20575;-59
2024/03/27 01:52:26;;;;;;;2.22;1.35;;;;;;;10.15;55.71;97403.00;10402944;28;20049;-58
2024/03/27 01:57:29;;;;;;;3.38;1.10;;;;;;;9.99;55.98;97414.53;10401008;28;20045;-59
2024/03/27 02:02:30;;;;;;;2.80;1.23;;;;;;;9.93;55.90;97405.59;10381196;28;20522;-59
2024/03/27 02:07:30;;;;;;;2.03;1.30;;;;;;;9.85;55.97;97408.69;10400193;28;20052;-60
2024/03/27 02:12:32;;;;;;;2.28;1.15;;;;;;;9.83;56.28;97402.75;10399304;28;20484;-59
2024/03/27 02:17:32;;;;;;;5.95;1.23;;;;;;;9.83;56.29;97394.72;10400254;28;20045;-59
2024/03/27 02:22:34;;;;;;;4.20;1.60;;;;;;;9.77;56.47;97376.91;10400457;28;20053;-59
2024/03/27 02:27:35;;;;;;;2.95;1.30;;;;;;;9.73;56.44;97371.22;10400082;28;20511;-59
2024/03/27 02:32:35;;;;;;;3.10;1.23;;;;;;;9.53;57.18;97364.47;10400586;28;20049;-59
2024/03/27 02:37:36;;;;;;;3.17;1.52;;;;;;;9.49;57.05;97378.63;10401411;28;20057;-60
2024/03/27 02:42:36;;;;;;;4.68;2.45;;;;;;;9.37;57.43;97381.34;10400586;28;20123;-57
2024/03/27 02:47:37;;;;;;;4.93;2.83;;;;;;;9.30;57.42;97375.31;10402854;28;20064;-57
2024/03/27 02:52:37;;;;;;;3.80;2.30;;;;;;;9.22;57.49;97378.41;10401645;28;20049;-57
2024/03/27 02:57:38;;;;;;;3.17;1.20;;;;;;;9.11;57.65;97366.69;10407653;28;20424;-57
2024/03/27 03:02:38;;;;;;;2.58;1.48;;;;;;;8.99;57.95;97377.47;10406618;28;20064;-57
2024/03/27 03:07:38;;;;;;;4.15;2.03;;;;;;;8.89;57.93;97369.25;10397454;28;20041;-57
2024/03/27 03:12:39;;;;;;;4.57;1.73;;;;;;;8.77;58.27;97363.09;10410881;28;20037;-57
2024/03/27 03:17:39;;;;;;;3.42;1.75;;;;;;;8.69;58.65;97385.72;10404266;28;20045;-57
2024/03/27 03:22:40;;;;;;;3.35;1.40;;;;;;;8.60;58.65;97384.47;10405755;28;20053;-57
2024/03/27 03:27:41;;;;;;;2.97;1.40;;;;;;;8.47;59.06;97397.06;10410044;28;20543;-57
2024/03/27 03:32:41;;;;;;;4.95;1.83;;;;;;;8.34;59.26;97406.13;10402137;28;20050;-57
2024/03/27 03:37:42;;;;;;;2.95;1.23;;;;;;;8.29;59.38;97411.38;10401960;28;20423;-57
2024/03/27 03:42:43;;;;;;;1.70;1.02;;;;;;;8.26;59.04;97414.50;10408096;28;20069;-57
2024/03/27 03:47:43;;;;;;;5.28;1.45;;;;;;;8.13;59.39;97393.34;10409244;28;20401;-59
2024/03/27 03:52:43;;;;;;;2.30;1.13;;;;;;;8.03;60.25;97385.09;10404825;28;20419;-58
2024/03/27 03:57:44;;;;;;;2.70;1.17;;;;;;;7.98;59.84;97359.03;10404328;28;20419;-58
2024/03/27 04:02:44;;;;;;;2.22;1.17;;;;;;;7.89;60.37;97349.75;10402303;28;20068;-58
2024/03/27 04:07:48;;;;;;;3.90;1.10;;;;;;;7.90;59.84;97349.50;10393306;28;20093;-58
2024/03/27 04:12:48;;;;;;;2.00;1.10;;;;;;;7.93;59.84;97356.25;10412520;28;20045;-58
2024/03/27 04:17:49;;;;;;;3.03;1.33;;;;;;;8.02;59.62;97352.19;10402973;28;20075;-59
2024/03/27 04:22:49;;;;;;;4.28;2.08;;;;;;;8.02;59.70;97344.16;10402117;28;20418;-59
2024/03/27 04:33:07;;;;;;;3.65;2.10;;;;;;;7.97;60.41;97359.28;10634111;23;20407;-81
2024/03/27 04:38:08;;;;;;;3.22;2.35;;;;;;;7.96;59.86;97382.53;10373077;28;20053;-82
2024/03/27 04:43:08;;;;;;;3.58;1.90;;;;;;;7.94;60.58;97380.09;10343921;28;20040;-83
2024/03/27 04:48:09;;;;;;;6.55;1.90;;;;;;;8.03;60.14;97374.38;10362839;28;20059;-82
2024/03/27 04:53:10;;;;;;;5.15;1.80;;;;;;;8.17;59.84;97373.09;10391488;28;20041;-87
2024/03/27 04:58:11;;;;;;;2.13;1.23;;;;;;;8.24;59.61;97376.47;10400004;28;20042;-86
2024/03/27 05:03:12;;;;;;;1.92;1.20;;;;;;;8.20;59.44;97390.56;10456820;28;20042;-87
2024/03/27 05:08:13;;;;;;;2.30;1.10;;;;;;;8.12;60.13;97381.03;10495236;28;20056;-87
2024/03/27 05:13:13;;;;;;;2.97;1.40;;;;;;;8.17;59.96;97373.09;10448780;28;20044;-88
2024/03/27 05:18:14;;;;;;;1.75;1.10;;;;;;;8.18;59.71;97364.03;10430948;28;20121;-87
2024/03/27 05:23:15;;;;;;;3.20;1.10;;;;;;;8.00;60.25;97354.28;10436571;28;20052;-90
2024/03/27 05:28:16;;;;;;;3.92;1.38;;;;;;;8.02;60.16;97341.47;10458717;28;20044;-90
2024/03/27 05:33:16;;;;;;;4.85;1.42;;;;;;;8.03;59.41;97336.94;10432641;22;20065;-62
2024/03/27 05:38:17;;;;;;;2.25;1.08;;;;;;;8.01;59.63;97337.16;10413202;28;20068;-62
2024/03/27 05:43:18;;;;;;;3.70;1.05;;;;;;;7.87;59.87;97351.84;10409607;28;20046;-62
2024/03/27 05:48:18;;;;;;;3.15;1.10;;;;;;;7.93;60.13;97349.03;10411211;28;20107;-62
2024/03/27 05:53:20;;;;;;;2.28;1.00;;;;;;;7.86;59.89;97343.00;10400231;28;20049;-62
2024/03/27 05:58:20;;;;;;;4.88;1.40;;;;;;;8.10;59.81;97372.41;10401600;28;20056;-62
2024/03/27 06:03:21;;;;;;;1.48;1.30;;;;;;;8.24;59.56;97363.09;10403229;28;20502;-62
2024/03/27 06:08:22;;;;;;;3.17;1.65;;;;;;;8.45;59.50;97347.47;10390206;28;20094;-63
2024/03/27 06:13:22;;;;;;;1.65;0.98;;;;;;;8.68;59.05;97352.75;10405356;28;20048;-62
2024/03/27 06:18:22;;;;;;;5.68;1.73;;;;;;;8.83;59.24;97343.41;10411456;28;20044;-62
2024/03/27 06:23:23;;;;;;;4.70;1.52;;;;;;;9.07;58.64;97336.09;10388926;28;20037;-62
2024/03/27 06:28:24;;;;;;;4.82;1.55;;;;;;;9.34;58.45;97322.88;10400420;28;20037;-61
2024/03/27 06:33:25;;;;;;;3.22;1.33;;;;;;;9.49;58.32;97317.75;10413931;28;20084;-62
2024/03/27 06:38:27;;;;;;;3.33;1.63;;;;;;;9.79;57.76;97311.22;10409286;28;20052;-61
2024/03/27 06:43:27;;;;;;;3.38;1.38;;;;;;;10.12;57.77;97306.84;10412968;28;20127;-62
2024/03/27 06:48:33;;;;;;;5.38;1.65;;;;;;;10.43;57.13;97300.03;10413713;28;20075;-62
2024/03/27 06:53:33;;;;;;;4.50;1.45;;;;;;;10.78;56.52;97309.56;10411575;28;20049;-59
2024/03/27 06:58:34;;;;;;;3.63;1.23;;;;;;;11.08;55.99;97297.50;10406516;28;20041;-57
2024/03/27 07:03:34;;;;;;;3.47;1.70;;;;;;;11.36;56.14;97303.66;10408272;28;20129;-60
2024/03/27 07:08:35;;;;;;;7.05;2.65;;;;;;;11.62;55.75;97302.75;10409026;28;20531;-60
2024/03/27 07:13:35;;;;;;;5.47;2.10;;;;;;;11.92;55.82;97311.34;10408452;28;20053;-57
2024/03/27 07:18:36;;;;;;;3.55;1.42;;;;;;;12.17;55.32;97316.88;10413540;28;20063;-57
2024/03/27 07:23:36;;;;;;;3.05;2.00;;;;;;;12.36;55.70;97322.63;10412874;28;20048;-59
2024/03/27 07:28:37;;;;;;;10.50;1.98;;;;;;;12.53;55.42;97311.63;10405460;28;20037;-58
2024/03/27 07:33:37;;;;;;;7.72;2.53;;;;;;;12.72;55.43;97313.84;10411531;28;20060;-57
2024/03/27 07:38:38;;;;;;;5.45;2.33;;;;;;;12.84;55.09;97317.13;10409723;28;20099;-58
2024/03/27 07:43:38;;;;;;;7.05;2.20;;;;;;;13.06;54.86;97316.91;10409231;28;20047;-57
2024/03/27 07:48:39;;;;;;;2.88;1.60;;;;;;;13.20;54.41;97315.31;10410304;28;20040;-57
2024/03/27 07:53:39;;;;;;;3.33;2.17;;;;;;;13.36;54.22;97310.78;10409766;28;20037;-57
2024/03/27 07:58:39;;;;;;;3.78;2.40;;;;;;;13.54;53.53;97314.00;10411121;28;20537;-57
2024/03/27 08:03:40;;;;;;;4.38;1.90;;;;;;;13.74;52.75;97324.78;10409257;28;20037;-66
2024/03/27 08:08:41;;;;;;;8.52;2.92;;;;;;;13.91;52.48;97302.91;10414719;28;20045;-66
2024/03/27 08:13:42;;;;;;;3.00;1.73;;;;;;;13.94;52.01;97304.25;10412641;28;20044;-66
2024/03/27 08:18:45;;;;;;;4.50;1.90;;;;;;;13.98;51.87;97299.91;10410053;28;20037;-67
2024/03/27 08:23:45;;;;;;;4.25;1.83;;;;;;;13.96;51.64;97296.69;10406862;28;20057;-66
2024/03/27 08:28:46;;;;;;;3.03;2.20;;;;;;;13.98;51.80;97314.25;10394611;28;20049;-66
2024/03/27 08:33:46;;;;;;;7.72;2.35;;;;;;;14.25;51.05;97313.09;10407513;28;20067;-60
2024/03/27 08:38:47;;;;;;;6.28;2.60;;;;;;;14.36;50.80;97301.16;10409348;28;20049;-60
2024/03/27 08:43:48;;;;;;;5.85;2.05;;;;;;;14.30;50.73;97291.47;10405582;28;20517;-61
2024/03/27 08:48:48;;;;;;;2.50;1.73;;;;;;;14.32;50.48;97289.28;10404392;28;20044;-61
2024/03/27 08:53:49;;;;;;;3.38;1.85;;;;;;;14.40;50.05;97286.00;10406267;28;20037;-64
2024/03/27 08:58:50;;;;;;;3.85;1.95;;;;;;;14.56;49.68;97284.09;10408453;28;20044;-64
2024/03/27 09:03:50;;;;;;;6.93;2.50;;;;;;;14.63;49.49;97275.66;10410296;28;20057;-67
2024/03/27 09:08:51;;;;;;;4.75;2.03;;;;;;;14.78;49.23;97272.09;10405051;28;20419;-64
2024/03/27 09:13:51;;;;;;;11.02;2.28;;;;;;;15.05;48.61;97266.25;10410665;28;20053;-67
2024/03/27 09:18:52;;;;;;;4.85;1.83;;;;;;;15.13;48.23;97257.50;10387627;28;20092;-65
2024/03/27 09:23:52;;;;;;;5.05;1.70;;;;;;;15.05;48.29;97267.03;10376441;28;20449;-64
2024/03/27 09:28:53;;;;;;;5.05;1.63;;;;;;;15.10;47.91;97265.38;10409507;28;20547;-65
2024/03/27 09:33:53;;;;;;;3.97;1.80;;;;;;;15.28;47.48;97272.81;10399389;28;20052;-67
2024/03/27 09:38:54;;;;;;;7.47;1.75;;;;;;;15.64;46.70;97267.91;10397716;28;20548;-66
2024/03/27 09:43:55;;;;;;;3.75;1.80;;;;;;;15.70;46.65;97252.44;10410417;28;20465;-67
2024/03/27 09:48:57;;;;;;;5.13;2.25;;;;;;;16.05;45.56;97247.75;10407665;28;20051;-66
2024/03/27 09:53:58;;;;;;;3.97;1.92;;;;;;;16.08;45.20;97259.94;10410480;28;20099;-59
2024/03/27 09:58:59;;;;;;;3.55;1.90;;;;;;;16.36;44.83;97278.00;10405552;28;20044;-57
2024/03/27 10:04:01;;;;;;;6.18;2.00;;;;;;;16.63;44.21;97249.50;10406238;28;20044;-57
2024/03/27 10:09:03;;;;;;;4.63;1.80;;;;;;;16.84;43.33;97242.72;10411257;28;20040;-56
2024/03/27 10:14:03;;;;;;;6.95;2.38;;;;;;;17.11;42.83;97260.22;10407958;28;20049;-58
2024/03/27 10:19:04;;;;;;;5.47;2.00;;;;;;;17.49;42.01;97259.34;10404709;28;20049;-58
2024/03/27 10:24:07;;;;;;;3.70;1.95;;;;;;;19.72;37.90;97251.41;10407383;28;20050;-61
2024/03/27 10:29:08;;;;;;;3.40;1.98;;;;;;;21.28;35.41;97254.88;10399638;28;20042;-61
2024/03/27 10:34:08;;;;;;;5.70;2.15;;;;;;;26.43;28.11;97247.50;10412403;28;20422;-62
2024/03/27 10:39:16;;;;;;;3.17;2.00;;;;;;;25.63;29.65;97265.88;10404452;28;20060;-62
2024/03/27 10:44:17;;;;;;;3.25;2.25;;;;;;;27.11;27.76;97254.53;10411834;28;20049;-62
2024/03/27 10:49:20;;;;;;;3.67;2.42;;;;;;;27.13;27.08;97256.94;10406157;28;20055;-62
2024/03/27 10:54:21;;;;;;;5.43;2.33;;;;;;;24.71;30.20;97260.84;10404459;28;20053;-61
2024/03/27 10:59:22;;;;;;;2.53;1.90;;;;;;;23.17;32.01;97266.56;10408319;28;20057;-61
2024/03/27 11:04:27;;;;;;;3.22;2.30;;;;;;;22.09;32.53;97281.44;10400820;28;20040;-61
2024/03/27 11:09:27;;;;;;;4.28;2.35;;;;;;;21.41;33.30;97294.13;10402827;28;20045;-62
2024/03/27 11:14:28;;;;;;;4.60;2.10;;;;;;;21.07;33.59;97279.31;10400362;28;20049;-62
2024/03/27 11:19:32;;;;;;;3.92;2.00;;;;;;;20.70;34.28;97289.72;10411447;28;20517;-61
2024/03/27 11:24:33;;;;;;;3.20;2.08;;;;;;;21.29;32.91;97306.47;10413984;28;20040;-61
2024/03/27 11:29:35;;;;;;;3.35;2.03;;;;;;;21.63;32.70;97298.63;10409833;28;20056;-60
2024/03/27 11:34:36;;;;;;;5.00;2.53;;;;;;;22.52;31.32;97290.63;10406516;28;20210;-58
2024/03/27 11:39:37;;;;;;;7.72;2.40;;;;;;;22.55;31.66;97295.44;10396080;28;20107;-57
2024/03/27 11:44:38;;;;;;;4.80;2.10;;;;;;;22.79;31.52;97275.66;10412571;28;20128;-60
2024/03/27 11:49:41;;;;;;;3.72;1.40;;;;;;;22.56;32.02;97289.63;10414065;28;20056;-57
2024/03/27 11:54:41;;;;;;;4.57;2.00;;;;;;;22.13;32.79;97296.06;10411920;28;20045;-57
2024/03/27 11:59:42;;;;;;;2.95;1.60;;;;;;;20.84;34.19;97314.16;10410523;28;20519;-59
2024/03/27 12:04:43;;;;;;;2.90;1.90;;;;;;;20.87;34.35;97303.38;10408154;28;20052;-58
2024/03/27 12:09:46;;;;;;;5.05;2.10;;;;;;;20.52;34.50;97319.66;10407645;28;20044;-57
2024/03/27 12:14:46;;;;;;;3.72;1.80;;;;;;;21.28;33.75;97315.00;10413740;28;20060;-57
2024/03/27 12:19:51;;;;;;;2.75;1.58;;;;;;;21.19;33.58;97315.81;10408998;28;20045;-59
2024/03/27 12:24:52;;;;;;;2.97;1.55;;;;;;;20.45;34.91;97326.69;10410976;28;20041;-58
2024/03/27 12:29:55;;;;;;;3.08;1.33;;;;;;;21.49;33.30;97326.13;10414464;28;20091;-58
2024/03/27 12:34:57;;;;;;;5.07;1.90;;;;;;;20.87;34.47;97338.06;10410261;28;20115;-60
2024/03/27 12:39:57;;;;;;;3.25;1.75;;;;;;;20.27;34.95;97351.16;10413893;28;20037;-57
2024/03/27 12:44:58;;;;;;;4.90;1.50;;;;;;;20.18;35.32;97348.41;10403696;28;20075;-59
2024/03/27 12:49:58;;;;;;;1.95;1.55;;;;;;;20.14;35.65;97361.06;10395596;28;20118;-59
2024/03/27 12:54:59;;;;;;;3.83;1.30;;;;;;;20.43;35.18;97369.84;10411483;28;20084;-59
2024/03/27 12:59:59;;;;;;;7.43;1.55;;;;;;;20.94;34.80;97366.53;10405936;28;20048;-58
2024/03/27 13:05:00;;;;;;;4.00;1.70;;;;;;;21.14;34.12;97370.56;10407082;28;20515;-57
2024/03/27 13:10:00;;;;;;;5.95;1.40;;;;;;;20.11;35.99;97397.13;10409036;28;20063;-57
2024/03/27 13:15:01;;;;;;;1.52;0.90;;;;;;;19.35;38.03;97405.97;10413209;28;20041;-60
2024/03/27 13:20:03;;;;;;;2.08;0.80;;;;;;;20.28;36.59;97390.16;10406208;28;20053;-57
2024/03/27 13:25:04;;;;;;;0.90;0.30;;;;;;;20.18;37.71;97399.38;10407827;28;20415;-58
2024/03/27 13:30:14;;;;;;;2.20;0.40;;;;;;;21.89;34.78;97403.28;10411484;28;20052;-59
2024/03/27 13:35:15;;;;;;;3.92;0.20;;;;;;;20.57;37.15;97404.09;10408444;28;20415;-58
2024/03/27 13:40:15;;;;;;;0.22;0.20;;;;;;;19.52;38.65;97396.31;10388105;28;20059;-58
2024/03/27 13:45:16;;;;;;;0.57;0.20;;;;;;;18.95;39.41;97394.00;10408777;28;20049;-58
2024/03/27 13:50:17;;;;;;;3.10;0.40;;;;;;;18.79;39.81;97407.91;10405419;28;20630;-57
2024/03/27 13:55:17;;;;;;;2.03;0.17;;;;;;;18.51;40.47;97423.38;10394553;28;20521;-57
2024/03/27 14:00:18;;;;;;;1.88;0.10;;;;;;;18.06;41.35;97433.94;10412524;28;20045;-62
2024/03/27 14:05:18;;;;;;;0.45;0.40;;;;;;;17.72;42.33;97415.97;10409851;28;20459;-62
2024/03/27 14:10:19;;;;;;;0.20;0.10;;;;;;;17.34;43.51;97448.56;10404508;28;20049;-60
2024/03/27 14:15:19;;;;;;;2.13;0.10;;;;;;;17.29;43.24;97448.63;10408625;28;20052;-60
2024/03/27 14:20:20;;;;;;;0.40;0.20;;;;;;;17.67;43.08;97456.00;10407064;28;20063;-60
2024/03/27 14:25:20;;;;;;;0.40;0.20;;;;;;;18.43;41.72;97452.09;10406281;28;20068;-60
2024/03/27 14:30:21;;;;;;;0.35;0.10;;;;;;;18.74;41.24;97457.00;10404460;28;20049;-60
2024/03/27 14:35:21;;;;;;;0.10;0.10;;;;;;;18.82;41.04;97452.78;10415328;28;20045;-59
2024/03/27 14:40:22;;;;;;;0.20;0.10;;;;;;;18.50;41.15;97468.00;10401012;28;20045;-58
2024/03/27 14:45:22;;;;;;;0.45;0.10;;;;;;;17.82;42.33;97472.09;10404191;28;20416;-57
2024/03/27 14:50:23;;;;;;;0.40;0.10;;;;;;;17.40;42.95;97473.75;10418077;28;20049;-58
2024/03/27 14:55:23;;;;;;;0.10;0.10;;;;;;;17.24;43.22;97470.44;10411265;28;20127;-58
2024/03/27 15:00:24;;;;;;;0.13;0.10;;;;;;;16.90;43.70;97468.63;10414928;28;20049;-60
2024/03/27 15:05:24;;;;;;;1.27;0.10;;;;;;;16.98;43.49;97475.31;10413114;28;20045;-62
2024/03/27 15:10:25;;;;;;;1.98;0.10;;;;;;;17.01;43.36;97483.69;10413973;28;20516;-62
2024/03/27 15:15:25;;;;;;;1.40;0.20;;;;;;;17.10;42.98;97502.91;10416338;28;20051;-62
2024/03/27 15:20:26;;;;;;;0.20;0.10;;;;;;;16.90;43.31;97511.25;10408045;28;20049;-62
2024/03/27 15:25:26;;;;;;;0.10;0.10;;;;;;;16.56;44.64;97531.88;10413350;28;20100;-61
2024/03/27 15:30:27;;;;;;;1.35;0.10;;;;;;;16.12;45.69;97540.91;10410719;28;20060;-62
2024/03/27 15:35:33;;;;;;;1.23;0.20;;;;;;;15.73;47.12;97546.28;10417468;28;20459;-61
2024/03/27 15:40:33;;;;;;;0.10;0.10;;;;;;;15.25;48.13;97546.72;10408946;28;20045;-62
2024/03/27 15:45:34;;;;;;;0.32;0.20;;;;;;;14.66;50.22;97559.00;10409073;28;20049;-62
2024/03/27 15:50:35;;;;;;;0.43;0.20;;;;;;;14.15;51.81;97570.56;10414264;28;20049;-61
2024/03/27 15:55:35;;;;;;;0.35;0.35;;;;;;;13.65;53.27;97578.28;10411289;28;20053;-61
2024/03/27 16:00:36;;;;;;;2.72;0.43;;;;;;;13.30;54.48;97581.63;10409615;28;20118;-61
2024/03/27 16:05:36;;;;;;;0.95;0.40;;;;;;;12.84;55.87;97586.72;10411501;28;20068;-61
2024/03/27 16:10:47;;;;;;;1.23;0.20;;;;;;;12.61;57.07;97588.69;10410205;28;20053;-61
2024/03/27 16:15:48;;;;;;;1.75;0.30;;;;;;;12.42;57.57;97593.66;10413813;28;20049;-60
2024/03/27 16:20:52;;;;;;;2.17;0.35;;;;;;;12.42;57.46;97595.53;10413160;28;20103;-59
2024/03/27 16:25:52;;;;;;;0.47;0.20;;;;;;;12.36;58.05;97594.69;10410151;28;20103;-60
2024/03/27 16:30:53;;;;;;;0.50;0.40;;;;;;;12.15;59.22;97593.69;10403310;28;20048;-59
2024/03/27 16:35:53;;;;;;;0.82;0.70;;;;;;;12.01;59.54;97600.53;10405811;28;20525;-59
2024/03/27 16:40:54;;;;;;;0.30;0.30;;;;;;;11.92;60.44;97615.50;10403772;28;20577;-59
2024/03/27 16:45:54;;;;;;;0.20;0.20;;;;;;;11.24;62.41;97627.28;10410506;28;20091;-62
2024/03/27 16:50:55;;;;;;;0.73;0.30;;;;;;;10.87;64.19;97625.13;10404189;28;20045;-66
2024/03/27 16:55:55;;;;;;;0.35;0.20;;;;;;;10.80;63.61;97637.94;10408681;28;20382;-60
2024/03/27 17:00:56;;;;;;;0.85;0.10;;;;;;;10.75;64.09;97637.84;10411990;28;20045;-59
2024/03/27 17:05:56;;;;;;;0.68;0.65;;;;;;;10.75;64.50;97639.72;10408889;28;20051;-59
2024/03/27 17:10:57;;;;;;;0.50;0.28;;;;;;;10.95;64.11;97640.03;10405273;28;20057;-60
2024/03/27 17:15:57;;;;;;;0.60;0.32;;;;;;;11.01;64.47;97643.63;10406787;28;20068;-60
2024/03/27 17:20:58;;;;;;;1.58;0.50;;;;;;;11.01;65.24;97659.75;10409424;28;20041;-60
2024/03/27 17:25:58;;;;;;;1.92;0.38;;;;;;;11.01;65.67;97657.88;10412840;28;20095;-60
2024/03/27 17:30:59;;;;;;;0.30;0.20;;;;;;;10.79;65.88;97667.72;10406181;28;20436;-60
2024/03/27 17:36:00;;;;;;;0.35;0.20;;;;;;;10.69;66.10;97673.75;10399931;28;20049;-60
2024/03/27 17:41:00;;;;;;;0.43;0.20;;;;;;;10.59;66.46;97671.69;10389369;28;20471;-59
2024/03/27 17:46:03;;;;;;;0.30;0.20;;;;;;;10.53;66.57;97661.94;10406139;28;20044;-58
2024/03/27 17:51:04;;;;;;;0.20;0.10;;;;;;;10.46;66.50;97662.06;10407425;28;20411;-58
2024/03/27 17:56:05;;;;;;;1.17;0.10;;;;;;;10.46;66.15;97674.69;10410567;28;20048;-59
2024/03/27 18:01:09;;;;;;;1.08;0.10;;;;;;;10.42;65.76;97671.66;10401266;28;20044;-58
2024/03/27 18:06:10;;;;;;;1.27;0.20;;;;;;;10.53;65.52;97667.31;10420726;28;20040;-61
2024/03/27 18:11:10;;;;;;;0.38;0.20;;;;;;;10.54;65.19;97673.47;10403795;28;20052;-59
2024/03/27 18:16:11;;;;;;;2.63;0.90;;;;;;;10.65;64.89;97675.28;10420527;28;20041;-59
2024/03/27 18:21:11;;;;;;;0.55;0.32;;;;;;;10.68;64.47;97672.94;10411273;28;20045;-60
2024/03/27 18:26:12;;;;;;;3.25;0.52;;;;;;;10.73;64.59;97674.88;10413243;28;20051;-59
2024/03/27 18:31:12;;;;;;;0.20;0.15;;;;;;;10.74;64.73;97670.31;10420593;28;20404;-59
2024/03/27 18:36:13;;;;;;;1.65;0.20;;;;;;;10.67;64.63;97667.81;10374611;28;20054;-59
2024/03/27 18:41:13;;;;;;;0.95;0.30;;;;;;;10.69;64.23;97671.88;10394567;28;20145;-59
2024/03/27 18:46:14;;;;;;;0.30;0.20;;;;;;;10.66;63.80;97671.53;10401296;28;20069;-59
2024/03/27 18:51:14;;;;;;;2.65;0.40;;;;;;;10.65;63.73;97680.66;10380059;28;20041;-59
2024/03/27 18:56:15;;;;;;;1.52;0.40;;;;;;;10.61;63.87;97677.63;10399626;28;20057;-59
2024/03/27 19:01:16;;;;;;;0.70;0.40;;;;;;;10.69;63.72;97671.88;10399226;28;20095;-58
2024/03/27 19:06:16;;;;;;;0.82;0.40;;;;;;;10.75;63.86;97675.47;10396639;28;20050;-58
2024/03/27 19:11:17;;;;;;;0.82;0.40;;;;;;;10.79;63.61;97676.59;10383737;28;20587;-59
2024/03/27 19:16:18;;;;;;;0.82;0.30;;;;;;;10.83;63.17;97679.63;10388878;28;20068;-59
2024/03/27 19:21:19;;;;;;;1.48;0.43;;;;;;;10.88;63.35;97683.22;10387957;28;20419;-59
2024/03/27 19:26:20;;;;;;;1.20;0.40;;;;;;;10.91;63.23;97674.63;10387543;28;20045;-58
2024/03/27 19:31:20;;;;;;;0.50;0.40;;;;;;;10.87;63.39;97676.19;10389182;28;20122;-59
2024/03/27 19:36:21;;;;;;;1.88;0.47;;;;;;;10.88;62.97;97688.59;10387218;28;21977;-59
2024/03/27 19:41:22;;;;;;;0.60;0.40;;;;;;;10.86;63.49;97703.31;10383626;28;21937;-60
2024/03/27 19:46:23;;;;;;;1.27;0.75;;;;;;;10.87;63.20;97702.25;10385334;28;20065;-63
2024/03/27 19:51:23;;;;;;;1.50;0.55;;;;;;;10.87;63.45;97711.13;10390448;28;20463;-62
2024/03/27 19:56:24;;;;;;;0.63;0.63;;;;;;;10.90;63.23;97720.59;10384840;28;20095;-63
2024/03/27 20:01:24;;;;;;;1.42;0.55;;;;;;;10.90;63.05;97724.09;10381488;28;20060;-63
2024/03/27 20:06:25;;;;;;;1.35;0.70;;;;;;;10.92;63.12;97723.84;10384951;28;20057;-63
2024/03/27 20:11:25;;;;;;;1.75;0.70;;;;;;;10.94;63.09;97713.69;10366630;28;20396;-63
2024/03/27 20:16:26;;;;;;;1.33;0.70;;;;;;;10.93;63.24;97705.84;10381280;28;20056;-63
2024/03/27 20:21:26;;;;;;;3.47;0.90;;;;;;;11.01;63.04;97706.25;10382642;28;20052;-63
2024/03/27 20:26:27;;;;;;;1.63;0.90;;;;;;;11.03;63.21;97700.63;10383159;28;20046;-62
2024/03/27 20:31:27;;;;;;;2.60;0.80;;;;;;;10.99;63.11;97692.25;10379277;28;20055;-63
2024/03/27 20:36:28;;;;;;;2.22;1.00;;;;;;;10.93;63.65;97697.78;10384085;28;20054;-63
2024/03/27 20:41:28;;;;;;;4.35;1.05;;;;;;;10.90;63.69;97691.84;10382241;28;20049;-64
2024/03/27 20:46:28;;;;;;;1.27;0.82;;;;;;;10.82;63.74;97694.94;10378658;28;20049;-64
2024/03/27 20:51:29;;;;;;;1.05;0.85;;;;;;;10.77;64.06;97689.47;10387943;28;20467;-65
2024/03/27 20:56:30;;;;;;;1.42;0.80;;;;;;;10.68;64.23;97696.28;10384227;28;20054;-63
2024/03/27 21:01:30;;;;;;;2.38;1.30;;;;;;;10.63;64.26;97683.59;10383573;28;20045;-63
2024/03/27 21:06:32;;;;;;;2.10;1.05;;;;;;;10.53;64.26;97669.97;10382254;28;20049;-62
2024/03/27 21:11:33;;;;;;;2.95;1.30;;;;;;;10.63;63.68;97672.84;10380006;28;20472;-62
2024/03/27 21:16:33;;;;;;;4.32;1.73;;;;;;;10.61;63.89;97668.78;10385196;28;20041;-64
2024/03/27 21:21:33;;;;;;;2.78;1.50;;;;;;;10.62;63.90;97670.38;10383513;28;20068;-63
2024/03/27 21:26:34;;;;;;;3.17;1.50;;;;;;;10.61;63.81;97684.91;10382897;28;20057;-64
2024/03/27 21:31:34;;;;;;;2.58;1.40;;;;;;;10.59;64.21;97679.75;10381385;28;20038;-63
2024/03/27 21:36:38;;;;;;;1.95;1.15;;;;;;;10.61;63.73;97684.91;10377707;28;20044;-63
2024/03/27 21:41:41;;;;;;;2.10;1.23;;;;;;;10.62;63.99;97686.50;10382323;28;20053;-65
2024/03/27 21:46:41;;;;;;;2.03;1.52;;;;;;;10.60;63.86;97680.56;10387630;28;20048;-63
2024/03/27 21:51:42;;;;;;;2.60;1.23;;;;;;;10.58;64.18;97677.31;10382870;28;20049;-64
2024/03/27 21:56:42;;;;;;;2.78;1.05;;;;;;;10.57;64.21;97675.69;10379215;28;20485;-63
2024/03/27 22:01:43;;;;;;;4.18;1.60;;;;;;;10.51;63.89;97672.91;10378818;28;20623;-65
2024/03/27 22:06:43;;;;;;;3.45;1.45;;;;;;;10.50;64.10;97665.91;10378892;28;20059;-66
2024/03/27 22:11:44;;;;;;;3.42;1.20;;;;;;;10.57;63.53;97670.31;10382581;28;20047;-66
2024/03/27 22:16:44;;;;;;;3.38;1.33;;;;;;;10.54;63.62;97660.84;10384255;28;20046;-67
2024/03/27 22:21:45;;;;;;;2.80;1.77;;;;;;;10.53;63.25;97656.56;10383587;28;20036;-67
2024/03/27 22:26:45;;;;;;;2.38;1.20;;;;;;;10.52;63.82;97652.22;10381595;28;20099;-66
2024/03/27 22:31:46;;;;;;;2.67;1.45;;;;;;;10.50;64.11;97651.66;10375498;28;20056;-66
2024/03/27 22:36:46;;;;;;;2.38;1.10;;;;;;;10.42;64.21;97644.81;10378072;28;20556;-65
2024/03/27 22:41:47;;;;;;;3.90;1.60;;;;;;;10.41;64.39;97677.28;10381059;28;20397;-66
2024/03/27 22:46:48;;;;;;;2.83;1.40;;;;;;;10.45;64.01;97667.69;10381045;28;20103;-66
2024/03/27 22:51:48;;;;;;;3.33;1.45;;;;;;;10.40;63.78;97671.09;10373458;28;20463;-64
2024/03/27 22:56:49;;;;;;;2.72;1.38;;;;;;;10.41;63.86;97659.31;10382725;28;20214;-60
2024/03/27 23:01:49;;;;;;;2.60;1.30;;;;;;;10.41;64.03;97650.44;10378291;28;20095;-60
2024/03/27 23:06:50;;;;;;;1.50;0.98;;;;;;;10.46;63.80;97653.19;10366545;28;20072;-60
2024/03/27 23:11:50;;;;;;;2.00;1.17;;;;;;;10.45;63.62;97652.38;10383474;28;20073;-59
2024/03/27 23:16:51;;;;;;;1.48;0.70;;;;;;;10.47;63.87;97657.53;10372511;28;20500;-59
2024/03/27 23:21:51;;;;;;;3.35;0.98;;;;;;;10.41;63.73;97662.00;10368886;28;20038;-58
2024/03/27 23:26:52;;;;;;;1.05;0.70;;;;;;;10.38;63.88;97664.34;10380095;28;20124;-59